createdAt,value
2023-02-04T00:10:56.996Z,91.60
2023-02-04T00:26:00.170Z,91.49
2023-02-04T00:41:03.508Z,90.42
2023-02-04T00:56:08.627Z,90.31
2023-02-04T01:11:13.887Z,90.18
2023-02-04T01:26:18.556Z,89.94
2023-02-04T01:41:22.615Z,90.17
2023-02-04T01:56:27.563Z,89.74
2023-02-04T02:11:33.263Z,89.69
2023-02-04T02:26:36.637Z,89.43
2023-02-04T02:41:40.463Z,89.16
2023-02-04T02:56:43.644Z,88.79
2023-02-04T03:11:47.048Z,88.37
2023-02-04T03:26:50.873Z,88.09
2023-02-04T03:41:54.196Z,87.01
2023-02-04T03:56:57.385Z,86.59
2023-02-04T04:12:01.195Z,85.83
2023-02-04T04:27:04.475Z,84.94
2023-02-04T04:42:07.809Z,84.30
2023-02-04T04:57:10.980Z,83.71
2023-02-04T05:12:14.250Z,83.46
2023-02-04T05:27:17.531Z,83.88
2023-02-04T05:42:20.930Z,83.93
2023-02-04T05:57:24.185Z,83.32
2023-02-04T06:12:27.396Z,83.24
2023-02-04T06:27:30.569Z,82.78
2023-02-04T06:42:33.879Z,82.92
2023-02-04T06:57:37.063Z,82.65
2023-02-04T07:12:40.424Z,83.01
2023-02-04T07:27:43.820Z,83.23
2023-02-04T07:42:46.976Z,84.82
2023-02-04T07:57:52.745Z,84.82
2023-02-04T08:12:56.102Z,84.93
2023-02-04T08:27:59.406Z,85.21
2023-02-04T08:43:04.959Z,84.96
2023-02-04T08:58:08.298Z,84.81
2023-02-04T09:13:12.029Z,84.76
2023-02-04T09:28:17.714Z,84.46
2023-02-04T09:43:25.962Z,84.83
2023-02-04T09:58:33.386Z,82.83
2023-02-04T10:13:52.517Z,82.38
2023-02-04T10:28:59.690Z,82.76
2023-02-04T10:44:14.882Z,82.23
2023-02-04T10:59:27.146Z,81.84
2023-02-04T11:14:31.862Z,82.32
2023-02-04T11:29:43.602Z,82.28
2023-02-04T11:44:53.726Z,82.29
2023-02-04T11:59:57.047Z,81.80
2023-02-04T12:15:13.731Z,80.79
2023-02-04T12:30:18.676Z,80.79
2023-02-04T12:45:22.018Z,80.34
2023-02-04T13:00:27.678Z,79.75
2023-02-04T13:15:31.526Z,79.24
2023-02-04T13:30:34.991Z,77.98
2023-02-04T13:45:38.517Z,72.56
2023-02-04T14:00:41.808Z,72.49
2023-02-04T14:15:45.200Z,70.68
2023-02-04T14:30:48.474Z,66.92
2023-02-04T14:45:51.825Z,68.50
2023-02-04T15:00:55.380Z,69.02
2023-02-04T15:15:58.736Z,70.03
2023-02-04T15:31:02.413Z,71.23
2023-02-04T15:46:05.812Z,72.55
2023-02-04T16:01:09.157Z,73.50
2023-02-04T16:16:12.584Z,73.37
2023-02-04T16:31:16.041Z,73.73
2023-02-04T16:46:19.866Z,73.62
2023-02-04T17:01:23.523Z,73.81
2023-02-04T17:16:27.707Z,74.65
2023-02-04T17:31:31.465Z,75.68
2023-02-04T17:46:35.419Z,75.96
2023-02-04T18:01:42.253Z,76.63
2023-02-04T18:16:46.772Z,76.91
2023-02-04T18:31:53.854Z,76.98
2023-02-04T18:46:57.921Z,76.87
2023-02-04T19:02:01.304Z,77.44
2023-02-04T19:17:07.764Z,77.46
2023-02-04T19:32:24.723Z,77.36
2023-02-04T19:47:32.921Z,77.38
2023-02-04T20:02:39.616Z,76.96
2023-02-04T20:17:48.890Z,76.99
2023-02-04T20:32:56.061Z,76.84
2023-02-04T20:53:59.535Z,76.65
2023-02-04T21:09:04.515Z,76.29
2023-02-04T21:24:09.002Z,76.01
2023-02-04T21:39:13.189Z,75.71
2023-02-04T21:54:16.772Z,75.33
2023-02-04T22:09:20.367Z,75.45
2023-02-04T22:24:25.710Z,75.38
2023-02-04T22:39:29.306Z,75.03
2023-02-04T22:54:32.769Z,74.91
2023-02-04T23:09:36.383Z,74.63
2023-02-04T23:24:41.060Z,74.55
2023-02-04T23:39:44.501Z,74.46
2023-02-04T23:54:53.233Z,74.05
